sensor_id;sensor_type;location;lat;lon;timestamp;P1;durP1;ratioP1;P2;durP2;ratioP2
74789;SDS011;63318;52.406;13.416;2022-11-15T00:01:07;32.30;;;16.90;;
74789;SDS011;63318;52.406;13.416;2022-11-15T00:03:40;33.20;;;17.10;;
74789;SDS011;63318;52.406;13.416;2022-11-15T00:06:09;31.00;;;18.30;;
74789;SDS011;63318;52.406;13.416;2022-11-15T00:08:37;36.10;;;17.90;;
74789;SDS011;63318;52.406;13.416;2022-11-15T00:11:05;32.50;;;16.60;;
74789;SDS011;63318;52.406;13.416;2022-11-15T00:13:36;28.90;;;16.40;;
74789;SDS011;63318;52.406;13.416;2022-11-15T00:16:04;25.90;;;15.80;;
74789;SDS011;63318;52.406;13.416;2022-11-15T00:18:33;29.00;;;15.50;;
74789;SDS011;63318;52.406;13.416;2022-11-15T00:21:04;28.70;;;15.90;;
74789;SDS011;63318;52.406;13.416;2022-11-15T00:23:36;24.90;;;15.20;;
74789;SDS011;63318;52.406;13.416;2022-11-15T00:26:04;31.30;;;17.30;;
74789;SDS011;63318;52.406;13.416;2022-11-15T00:28:33;30.10;;;16.60;;
74789;SDS011;63318;52.406;13.416;2022-11-15T00:31:02;30.30;;;16.20;;
74789;SDS011;63318;52.406;13.416;2022-11-15T00:33:31;29.10;;;16.00;;
74789;SDS011;63318;52.406;13.416;2022-11-15T00:36:00;27.80;;;16.00;;
74789;SDS011;63318;52.406;13.416;2022-11-15T00:38:31;30.60;;;16.30;;
74789;SDS011;63318;52.406;13.416;2022-11-15T00:41:01;30.70;;;17.00;;
74789;SDS011;63318;52.406;13.416;2022-11-15T00:43:30;34.00;;;17.20;;
74789;SDS011;63318;52.406;13.416;2022-11-15T00:45:59;29.40;;;16.90;;
74789;SDS011;63318;52.406;13.416;2022-11-15T00:48:27;30.50;;;15.80;;
74789;SDS011;63318;52.406;13.416;2022-11-15T00:50:56;33.60;;;17.70;;
74789;SDS011;63318;52.406;13.416;2022-11-15T00:53:24;36.20;;;19.60;;
74789;SDS011;63318;52.406;13.416;2022-11-15T00:55:52;37.70;;;19.50;;
74789;SDS011;63318;52.406;13.416;2022-11-15T00:58:20;40.50;;;20.00;;
74789;SDS011;63318;52.406;13.416;2022-11-15T01:00:48;37.50;;;18.10;;
74789;SDS011;63318;52.406;13.416;2022-11-15T01:03:17;33.60;;;19.20;;
74789;SDS011;63318;52.406;13.416;2022-11-15T01:05:45;30.10;;;17.00;;
74789;SDS011;63318;52.406;13.416;2022-11-15T01:08:14;33.10;;;18.50;;
74789;SDS011;63318;52.406;13.416;2022-11-15T01:10:43;35.90;;;18.00;;
74789;SDS011;63318;52.406;13.416;2022-11-15T01:13:11;32.10;;;17.30;;
74789;SDS011;63318;52.406;13.416;2022-11-15T01:15:40;30.50;;;16.30;;
74789;SDS011;63318;52.406;13.416;2022-11-15T01:18:08;30.70;;;17.20;;
74789;SDS011;63318;52.406;13.416;2022-11-15T01:20:40;30.40;;;17.50;;
74789;SDS011;63318;52.406;13.416;2022-11-15T01:23:08;30.50;;;17.00;;
74789;SDS011;63318;52.406;13.416;2022-11-15T01:25:37;30.30;;;16.40;;
74789;SDS011;63318;52.406;13.416;2022-11-15T01:28:05;30.50;;;16.80;;
74789;SDS011;63318;52.406;13.416;2022-11-15T01:30:33;29.60;;;16.30;;
74789;SDS011;63318;52.406;13.416;2022-11-15T01:33:03;31.80;;;17.40;;
74789;SDS011;63318;52.406;13.416;2022-11-15T01:35:31;32.80;;;17.40;;
74789;SDS011;63318;52.406;13.416;2022-11-15T01:38:04;32.30;;;17.90;;
74789;SDS011;63318;52.406;13.416;2022-11-15T01:40:32;33.10;;;18.20;;
74789;SDS011;63318;52.406;13.416;2022-11-15T01:45:50;34.20;;;17.60;;
74789;SDS011;63318;52.406;13.416;2022-11-15T01:48:23;35.30;;;18.60;;
74789;SDS011;63318;52.406;13.416;2022-11-15T01:50:57;35.10;;;18.30;;
74789;SDS011;63318;52.406;13.416;2022-11-15T01:53:26;35.70;;;19.50;;
74789;SDS011;63318;52.406;13.416;2022-11-15T01:55:56;40.00;;;19.60;;
74789;SDS011;63318;52.406;13.416;2022-11-15T01:58:25;31.50;;;16.90;;
74789;SDS011;63318;52.406;13.416;2022-11-15T02:00:53;31.40;;;17.20;;
74789;SDS011;63318;52.406;13.416;2022-11-15T02:03:21;33.70;;;16.80;;
74789;SDS011;63318;52.406;13.416;2022-11-15T02:05:54;29.70;;;16.10;;
74789;SDS011;63318;52.406;13.416;2022-11-15T02:08:22;28.20;;;14.90;;
74789;SDS011;63318;52.406;13.416;2022-11-15T02:10:51;28.20;;;15.30;;
74789;SDS011;63318;52.406;13.416;2022-11-15T02:13:19;29.90;;;15.50;;
74789;SDS011;63318;52.406;13.416;2022-11-15T02:15:48;27.40;;;16.00;;
74789;SDS011;63318;52.406;13.416;2022-11-15T02:18:26;26.20;;;14.10;;
74789;SDS011;63318;52.406;13.416;2022-11-15T02:21:05;23.70;;;13.70;;
74789;SDS011;63318;52.406;13.416;2022-11-15T02:23:51;31.20;;;16.20;;
74789;SDS011;63318;52.406;13.416;2022-11-15T02:32:36;25.60;;;14.50;;
74789;SDS011;63318;52.406;13.416;2022-11-15T02:35:12;26.20;;;13.70;;
74789;SDS011;63318;52.406;13.416;2022-11-15T02:37:51;24.20;;;13.60;;
74789;SDS011;63318;52.406;13.416;2022-11-15T02:40:26;24.90;;;13.50;;
74789;SDS011;63318;52.406;13.416;2022-11-15T02:43:03;22.90;;;13.30;;
74789;SDS011;63318;52.406;13.416;2022-11-15T02:45:37;25.20;;;12.90;;
74789;SDS011;63318;52.406;13.416;2022-11-15T02:48:11;26.40;;;13.80;;
74789;SDS011;63318;52.406;13.416;2022-11-15T02:50:41;24.40;;;14.00;;
74789;SDS011;63318;52.406;13.416;2022-11-15T02:53:11;24.10;;;14.30;;
74789;SDS011;63318;52.406;13.416;2022-11-15T02:55:41;25.30;;;13.90;;
74789;SDS011;63318;52.406;13.416;2022-11-15T02:58:24;25.10;;;14.90;;
74789;SDS011;63318;52.406;13.416;2022-11-15T03:01:11;26.90;;;13.90;;
74789;SDS011;63318;52.406;13.416;2022-11-15T03:03:52;27.10;;;13.90;;
74789;SDS011;63318;52.406;13.416;2022-11-15T03:06:30;22.30;;;12.90;;
74789;SDS011;63318;52.406;13.416;2022-11-15T03:09:07;20.70;;;11.90;;
74789;SDS011;63318;52.406;13.416;2022-11-15T03:11:41;21.90;;;12.40;;
74789;SDS011;63318;52.406;13.416;2022-11-15T03:14:18;21.40;;;11.60;;
74789;SDS011;63318;52.406;13.416;2022-11-15T03:16:54;23.70;;;12.60;;
74789;SDS011;63318;52.406;13.416;2022-11-15T03:19:30;20.70;;;12.20;;
74789;SDS011;63318;52.406;13.416;2022-11-15T03:22:04;23.60;;;12.30;;
74789;SDS011;63318;52.406;13.416;2022-11-15T03:24:36;25.20;;;13.80;;
74789;SDS011;63318;52.406;13.416;2022-11-15T03:27:07;24.70;;;14.50;;
74789;SDS011;63318;52.406;13.416;2022-11-15T03:29:39;22.90;;;13.00;;
74789;SDS011;63318;52.406;13.416;2022-11-15T03:34:41;26.90;;;13.70;;
74789;SDS011;63318;52.406;13.416;2022-11-15T03:37:13;26.50;;;13.80;;
74789;SDS011;63318;52.406;13.416;2022-11-15T03:39:43;26.60;;;13.10;;
74789;SDS011;63318;52.406;13.416;2022-11-15T03:42:15;19.90;;;11.80;;
74789;SDS011;63318;52.406;13.416;2022-11-15T03:44:50;19.40;;;11.10;;
74789;SDS011;63318;52.406;13.416;2022-11-15T03:47:25;19.60;;;11.30;;
74789;SDS011;63318;52.406;13.416;2022-11-15T03:49:58;18.80;;;10.90;;
74789;SDS011;63318;52.406;13.416;2022-11-15T03:52:32;18.90;;;10.60;;
74789;SDS011;63318;52.406;13.416;2022-11-15T03:55:01;19.50;;;10.90;;
74789;SDS011;63318;52.406;13.416;2022-11-15T03:57:32;14.80;;;8.90;;
74789;SDS011;63318;52.406;13.416;2022-11-15T04:00:01;16.10;;;9.30;;
74789;SDS011;63318;52.406;13.416;2022-11-15T04:02:29;19.30;;;10.90;;
74789;SDS011;63318;52.406;13.416;2022-11-15T04:04:57;20.20;;;10.80;;
74789;SDS011;63318;52.406;13.416;2022-11-15T04:07:26;24.00;;;13.60;;
74789;SDS011;63318;52.406;13.416;2022-11-15T04:09:54;25.80;;;14.10;;
74789;SDS011;63318;52.406;13.416;2022-11-15T04:12:22;27.10;;;13.60;;
74789;SDS011;63318;52.406;13.416;2022-11-15T04:14:50;27.40;;;13.60;;
74789;SDS011;63318;52.406;13.416;2022-11-15T04:17:19;25.00;;;13.90;;
74789;SDS011;63318;52.406;13.416;2022-11-15T04:19:47;22.70;;;13.10;;
74789;SDS011;63318;52.406;13.416;2022-11-15T04:22:15;24.60;;;13.70;;
74789;SDS011;63318;52.406;13.416;2022-11-15T04:24:43;24.00;;;13.20;;
74789;SDS011;63318;52.406;13.416;2022-11-15T04:27:11;26.00;;;12.90;;
74789;SDS011;63318;52.406;13.416;2022-11-15T04:29:39;24.60;;;14.40;;
74789;SDS011;63318;52.406;13.416;2022-11-15T04:32:07;26.30;;;14.10;;
74789;SDS011;63318;52.406;13.416;2022-11-15T04:34:36;29.10;;;15.10;;
74789;SDS011;63318;52.406;13.416;2022-11-15T04:37:04;28.20;;;14.60;;
74789;SDS011;63318;52.406;13.416;2022-11-15T04:39:32;31.50;;;16.60;;
74789;SDS011;63318;52.406;13.416;2022-11-15T04:42:01;27.10;;;14.50;;
74789;SDS011;63318;52.406;13.416;2022-11-15T04:44:29;26.90;;;14.10;;
74789;SDS011;63318;52.406;13.416;2022-11-15T04:46:57;28.00;;;15.50;;
74789;SDS011;63318;52.406;13.416;2022-11-15T04:49:26;27.60;;;14.60;;
74789;SDS011;63318;52.406;13.416;2022-11-15T04:51:54;30.00;;;16.00;;
74789;SDS011;63318;52.406;13.416;2022-11-15T04:54:22;33.10;;;17.10;;
74789;SDS011;63318;52.406;13.416;2022-11-15T04:56:50;34.10;;;17.90;;
74789;SDS011;63318;52.406;13.416;2022-11-15T04:59:18;38.90;;;17.80;;
74789;SDS011;63318;52.406;13.416;2022-11-15T05:01:47;32.30;;;17.20;;
74789;SDS011;63318;52.406;13.416;2022-11-15T05:04:15;33.50;;;16.70;;
74789;SDS011;63318;52.406;13.416;2022-11-15T05:06:43;31.00;;;16.10;;
74789;SDS011;63318;52.406;13.416;2022-11-15T05:09:11;30.80;;;16.80;;
74789;SDS011;63318;52.406;13.416;2022-11-15T05:11:40;30.80;;;15.90;;
74789;SDS011;63318;52.406;13.416;2022-11-15T05:14:08;29.40;;;16.40;;
74789;SDS011;63318;52.406;13.416;2022-11-15T05:16:36;28.80;;;15.10;;
74789;SDS011;63318;52.406;13.416;2022-11-15T05:19:05;29.60;;;16.20;;
74789;SDS011;63318;52.406;13.416;2022-11-15T05:21:33;29.50;;;14.60;;
74789;SDS011;63318;52.406;13.416;2022-11-15T05:24:02;29.60;;;15.10;;
74789;SDS011;63318;52.406;13.416;2022-11-15T05:26:31;29.80;;;16.10;;
74789;SDS011;63318;52.406;13.416;2022-11-15T05:28:59;32.20;;;15.50;;
74789;SDS011;63318;52.406;13.416;2022-11-15T05:31:27;27.60;;;14.60;;
74789;SDS011;63318;52.406;13.416;2022-11-15T05:33:56;32.60;;;15.40;;
74789;SDS011;63318;52.406;13.416;2022-11-15T05:36:27;31.60;;;15.00;;
74789;SDS011;63318;52.406;13.416;2022-11-15T05:39:00;31.90;;;16.20;;
74789;SDS011;63318;52.406;13.416;2022-11-15T05:41:31;25.30;;;16.40;;
74789;SDS011;63318;52.406;13.416;2022-11-15T05:44:02;32.10;;;16.00;;
74789;SDS011;63318;52.406;13.416;2022-11-15T05:46:32;34.00;;;16.60;;
74789;SDS011;63318;52.406;13.416;2022-11-15T05:49:03;36.50;;;17.50;;
74789;SDS011;63318;52.406;13.416;2022-11-15T05:51:36;34.40;;;18.60;;
74789;SDS011;63318;52.406;13.416;2022-11-15T05:54:05;44.00;;;20.80;;
74789;SDS011;63318;52.406;13.416;2022-11-15T05:56:34;39.60;;;19.30;;
74789;SDS011;63318;52.406;13.416;2022-11-15T05:59:02;33.90;;;17.60;;
74789;SDS011;63318;52.406;13.416;2022-11-15T06:01:31;35.30;;;18.30;;
74789;SDS011;63318;52.406;13.416;2022-11-15T06:03:59;33.70;;;17.10;;
74789;SDS011;63318;52.406;13.416;2022-11-15T06:06:28;32.30;;;17.40;;
74789;SDS011;63318;52.406;13.416;2022-11-15T06:08:56;31.30;;;16.50;;
74789;SDS011;63318;52.406;13.416;2022-11-15T06:11:25;33.50;;;16.50;;
74789;SDS011;63318;52.406;13.416;2022-11-15T06:13:53;27.60;;;14.90;;
74789;SDS011;63318;52.406;13.416;2022-11-15T06:16:22;28.80;;;15.30;;
74789;SDS011;63318;52.406;13.416;2022-11-15T06:18:50;28.40;;;15.50;;
74789;SDS011;63318;52.406;13.416;2022-11-15T06:21:18;22.50;;;12.90;;
74789;SDS011;63318;52.406;13.416;2022-11-15T06:23:47;19.80;;;11.60;;
74789;SDS011;63318;52.406;13.416;2022-11-15T06:26:15;20.10;;;11.40;;
74789;SDS011;63318;52.406;13.416;2022-11-15T06:28:43;18.60;;;10.70;;
74789;SDS011;63318;52.406;13.416;2022-11-15T06:31:11;18.10;;;10.20;;
74789;SDS011;63318;52.406;13.416;2022-11-15T06:33:40;17.20;;;10.60;;
74789;SDS011;63318;52.406;13.416;2022-11-15T06:36:10;15.00;;;8.70;;
74789;SDS011;63318;52.406;13.416;2022-11-15T06:38:39;13.20;;;8.80;;
74789;SDS011;63318;52.406;13.416;2022-11-15T06:41:08;15.60;;;8.70;;
74789;SDS011;63318;52.406;13.416;2022-11-15T06:43:38;17.20;;;9.30;;
74789;SDS011;63318;52.406;13.416;2022-11-15T06:46:07;18.90;;;10.20;;
74789;SDS011;63318;52.406;13.416;2022-11-15T06:48:36;18.20;;;10.20;;
74789;SDS011;63318;52.406;13.416;2022-11-15T06:51:04;22.10;;;11.20;;
74789;SDS011;63318;52.406;13.416;2022-11-15T06:53:33;26.00;;;14.10;;
74789;SDS011;63318;52.406;13.416;2022-11-15T06:56:01;25.30;;;11.80;;
74789;SDS011;63318;52.406;13.416;2022-11-15T06:58:31;25.00;;;14.40;;
74789;SDS011;63318;52.406;13.416;2022-11-15T07:01:00;23.80;;;12.60;;
74789;SDS011;63318;52.406;13.416;2022-11-15T07:03:29;22.70;;;12.00;;
74789;SDS011;63318;52.406;13.416;2022-11-15T07:05:58;20.30;;;11.50;;
74789;SDS011;63318;52.406;13.416;2022-11-15T07:08:27;22.80;;;12.00;;
74789;SDS011;63318;52.406;13.416;2022-11-15T07:10:56;20.70;;;11.60;;
74789;SDS011;63318;52.406;13.416;2022-11-15T07:13:26;21.40;;;12.00;;
74789;SDS011;63318;52.406;13.416;2022-11-15T07:15:56;21.40;;;12.20;;
74789;SDS011;63318;52.406;13.416;2022-11-15T07:18:24;22.30;;;12.00;;
74789;SDS011;63318;52.406;13.416;2022-11-15T07:20:52;21.40;;;12.60;;
74789;SDS011;63318;52.406;13.416;2022-11-15T07:23:20;24.10;;;12.60;;
74789;SDS011;63318;52.406;13.416;2022-11-15T07:25:51;26.60;;;14.30;;
74789;SDS011;63318;52.406;13.416;2022-11-15T07:28:19;26.20;;;13.70;;
74789;SDS011;63318;52.406;13.416;2022-11-15T07:30:47;26.10;;;13.20;;
74789;SDS011;63318;52.406;13.416;2022-11-15T07:33:15;25.10;;;14.50;;
74789;SDS011;63318;52.406;13.416;2022-11-15T07:35:43;24.10;;;13.50;;
74789;SDS011;63318;52.406;13.416;2022-11-15T07:38:12;26.40;;;16.60;;
74789;SDS011;63318;52.406;13.416;2022-11-15T07:40:40;31.80;;;16.40;;
74789;SDS011;63318;52.406;13.416;2022-11-15T07:43:08;32.00;;;17.30;;
74789;SDS011;63318;52.406;13.416;2022-11-15T07:45:39;37.70;;;17.60;;
74789;SDS011;63318;52.406;13.416;2022-11-15T07:48:09;36.70;;;18.50;;
74789;SDS011;63318;52.406;13.416;2022-11-15T07:50:39;36.40;;;18.00;;
74789;SDS011;63318;52.406;13.416;2022-11-15T07:53:09;32.10;;;17.50;;
74789;SDS011;63318;52.406;13.416;2022-11-15T07:55:39;33.00;;;16.80;;
74789;SDS011;63318;52.406;13.416;2022-11-15T07:58:08;35.40;;;17.40;;
74789;SDS011;63318;52.406;13.416;2022-11-15T08:00:38;33.30;;;17.70;;
74789;SDS011;63318;52.406;13.416;2022-11-15T08:03:07;33.00;;;17.80;;
74789;SDS011;63318;52.406;13.416;2022-11-15T08:05:37;32.80;;;17.70;;
74789;SDS011;63318;52.406;13.416;2022-11-15T08:08:06;34.50;;;18.50;;
74789;SDS011;63318;52.406;13.416;2022-11-15T08:10:36;31.20;;;18.00;;
74789;SDS011;63318;52.406;13.416;2022-11-15T08:13:04;33.10;;;18.60;;
74789;SDS011;63318;52.406;13.416;2022-11-15T08:15:34;34.50;;;18.30;;
74789;SDS011;63318;52.406;13.416;2022-11-15T08:18:04;33.90;;;17.90;;
74789;SDS011;63318;52.406;13.416;2022-11-15T08:20:33;40.00;;;19.70;;
74789;SDS011;63318;52.406;13.416;2022-11-15T08:23:03;35.70;;;18.70;;
74789;SDS011;63318;52.406;13.416;2022-11-15T08:25:32;37.50;;;19.50;;
74789;SDS011;63318;52.406;13.416;2022-11-15T08:28:02;38.30;;;19.90;;
74789;SDS011;63318;52.406;13.416;2022-11-15T08:30:33;39.10;;;20.30;;
74789;SDS011;63318;52.406;13.416;2022-11-15T08:33:04;38.10;;;19.30;;
74789;SDS011;63318;52.406;13.416;2022-11-15T08:35:32;39.00;;;20.60;;
74789;SDS011;63318;52.406;13.416;2022-11-15T08:38:00;48.10;;;24.70;;
74789;SDS011;63318;52.406;13.416;2022-11-15T08:40:29;45.40;;;23.80;;
74789;SDS011;63318;52.406;13.416;2022-11-15T08:42:57;40.70;;;20.60;;
74789;SDS011;63318;52.406;13.416;2022-11-15T08:45:25;37.60;;;19.80;;
74789;SDS011;63318;52.406;13.416;2022-11-15T08:47:53;40.30;;;19.90;;
74789;SDS011;63318;52.406;13.416;2022-11-15T08:50:21;36.70;;;19.30;;
74789;SDS011;63318;52.406;13.416;2022-11-15T08:52:50;31.90;;;17.50;;
74789;SDS011;63318;52.406;13.416;2022-11-15T08:55:18;35.70;;;18.10;;
74789;SDS011;63318;52.406;13.416;2022-11-15T08:57:46;33.50;;;17.50;;
74789;SDS011;63318;52.406;13.416;2022-11-15T09:00:15;30.70;;;17.00;;
74789;SDS011;63318;52.406;13.416;2022-11-15T09:02:44;31.70;;;17.80;;
74789;SDS011;63318;52.406;13.416;2022-11-15T09:05:13;30.80;;;17.60;;
74789;SDS011;63318;52.406;13.416;2022-11-15T09:07:41;31.20;;;17.40;;
74789;SDS011;63318;52.406;13.416;2022-11-15T09:10:10;35.90;;;19.00;;
74789;SDS011;63318;52.406;13.416;2022-11-15T09:12:40;30.20;;;17.60;;
74789;SDS011;63318;52.406;13.416;2022-11-15T09:15:09;33.70;;;17.50;;
74789;SDS011;63318;52.406;13.416;2022-11-15T09:17:37;28.70;;;17.20;;
74789;SDS011;63318;52.406;13.416;2022-11-15T09:20:06;34.90;;;18.10;;
74789;SDS011;63318;52.406;13.416;2022-11-15T09:22:35;32.90;;;18.00;;
74789;SDS011;63318;52.406;13.416;2022-11-15T09:25:04;30.30;;;16.90;;
74789;SDS011;63318;52.406;13.416;2022-11-15T09:27:34;38.80;;;20.00;;
74789;SDS011;63318;52.406;13.416;2022-11-15T09:30:02;33.40;;;17.90;;
74789;SDS011;63318;52.406;13.416;2022-11-15T09:32:32;32.80;;;18.00;;
74789;SDS011;63318;52.406;13.416;2022-11-15T09:35:00;32.00;;;16.80;;
74789;SDS011;63318;52.406;13.416;2022-11-15T09:37:29;28.30;;;16.60;;
74789;SDS011;63318;52.406;13.416;2022-11-15T09:39:59;28.00;;;16.80;;
74789;SDS011;63318;52.406;13.416;2022-11-15T09:42:32;29.30;;;15.90;;
74789;SDS011;63318;52.406;13.416;2022-11-15T09:45:15;30.10;;;16.60;;
74789;SDS011;63318;52.406;13.416;2022-11-15T09:53:31;26.00;;;14.10;;
74789;SDS011;63318;52.406;13.416;2022-11-15T09:56:13;26.20;;;13.50;;
74789;SDS011;63318;52.406;13.416;2022-11-15T09:58:46;26.90;;;15.00;;
74789;SDS011;63318;52.406;13.416;2022-11-15T10:01:26;25.30;;;14.70;;
74789;SDS011;63318;52.406;13.416;2022-11-15T10:04:04;23.70;;;13.70;;
74789;SDS011;63318;52.406;13.416;2022-11-15T10:06:34;26.00;;;15.70;;
74789;SDS011;63318;52.406;13.416;2022-11-15T10:09:09;23.90;;;13.60;;
74789;SDS011;63318;52.406;13.416;2022-11-15T10:11:43;25.20;;;13.40;;
74789;SDS011;63318;52.406;13.416;2022-11-15T10:14:12;24.50;;;14.00;;
74789;SDS011;63318;52.406;13.416;2022-11-15T10:19:50;23.40;;;13.30;;
74789;SDS011;63318;52.406;13.416;2022-11-15T10:22:27;22.50;;;12.30;;
74789;SDS011;63318;52.406;13.416;2022-11-15T10:25:00;25.50;;;14.20;;
74789;SDS011;63318;52.406;13.416;2022-11-15T10:27:41;25.30;;;13.20;;
74789;SDS011;63318;52.406;13.416;2022-11-15T10:30:15;25.10;;;12.70;;
74789;SDS011;63318;52.406;13.416;2022-11-15T10:32:45;21.50;;;11.90;;
74789;SDS011;63318;52.406;13.416;2022-11-15T10:35:18;22.10;;;12.50;;
74789;SDS011;63318;52.406;13.416;2022-11-15T10:37:49;20.90;;;11.40;;
74789;SDS011;63318;52.406;13.416;2022-11-15T10:40:19;20.50;;;12.10;;
74789;SDS011;63318;52.406;13.416;2022-11-15T10:42:49;19.90;;;11.90;;
74789;SDS011;63318;52.406;13.416;2022-11-15T10:48:22;19.90;;;11.30;;
74789;SDS011;63318;52.406;13.416;2022-11-15T10:50:51;20.10;;;11.20;;
74789;SDS011;63318;52.406;13.416;2022-11-15T10:53:25;17.80;;;10.60;;
74789;SDS011;63318;52.406;13.416;2022-11-15T10:56:00;18.50;;;10.60;;
74789;SDS011;63318;52.406;13.416;2022-11-15T10:58:36;20.60;;;11.30;;
74789;SDS011;63318;52.406;13.416;2022-11-15T11:01:10;18.80;;;10.90;;
74789;SDS011;63318;52.406;13.416;2022-11-15T11:03:41;22.10;;;12.20;;
74789;SDS011;63318;52.406;13.416;2022-11-15T11:06:12;20.60;;;10.00;;
74789;SDS011;63318;52.406;13.416;2022-11-15T11:08:42;17.60;;;10.50;;
74789;SDS011;63318;52.406;13.416;2022-11-15T11:11:22;17.80;;;11.20;;
74789;SDS011;63318;52.406;13.416;2022-11-15T11:13:50;16.10;;;11.10;;
74789;SDS011;63318;52.406;13.416;2022-11-15T11:16:30;16.90;;;10.70;;
74789;SDS011;63318;52.406;13.416;2022-11-15T11:19:17;18.20;;;9.50;;
74789;SDS011;63318;52.406;13.416;2022-11-15T11:21:57;17.60;;;10.60;;
74789;SDS011;63318;52.406;13.416;2022-11-15T11:24:34;21.60;;;11.00;;
74789;SDS011;63318;52.406;13.416;2022-11-15T11:29:48;19.20;;;10.40;;
74789;SDS011;63318;52.406;13.416;2022-11-15T11:32:29;16.70;;;10.30;;
74789;SDS011;63318;52.406;13.416;2022-11-15T11:35:19;17.60;;;9.30;;
74789;SDS011;63318;52.406;13.416;2022-11-15T11:37:56;17.50;;;9.30;;
74789;SDS011;63318;52.406;13.416;2022-11-15T11:40:39;16.80;;;9.60;;
74789;SDS011;63318;52.406;13.416;2022-11-15T11:43:12;18.00;;;9.90;;
74789;SDS011;63318;52.406;13.416;2022-11-15T11:45:51;15.60;;;9.40;;
74789;SDS011;63318;52.406;13.416;2022-11-15T11:48:37;15.00;;;9.20;;
74789;SDS011;63318;52.406;13.416;2022-11-15T11:51:10;16.80;;;9.00;;
74789;SDS011;63318;52.406;13.416;2022-11-15T11:53:46;13.30;;;8.40;;
74789;SDS011;63318;52.406;13.416;2022-11-15T11:56:23;15.70;;;8.60;;
74789;SDS011;63318;52.406;13.416;2022-11-15T11:58:54;13.30;;;7.60;;
74789;SDS011;63318;52.406;13.416;2022-11-15T12:01:28;13.00;;;7.80;;
74789;SDS011;63318;52.406;13.416;2022-11-15T12:04:01;14.80;;;7.50;;
74789;SDS011;63318;52.406;13.416;2022-11-15T12:06:38;14.40;;;8.20;;
74789;SDS011;63318;52.406;13.416;2022-11-15T12:09:17;12.80;;;7.40;;
74789;SDS011;63318;52.406;13.416;2022-11-15T12:11:49;14.20;;;8.00;;
74789;SDS011;63318;52.406;13.416;2022-11-15T12:14:24;14.20;;;8.30;;
74789;SDS011;63318;52.406;13.416;2022-11-15T12:16:58;17.60;;;8.20;;
74789;SDS011;63318;52.406;13.416;2022-11-15T12:19:26;12.30;;;7.10;;
74789;SDS011;63318;52.406;13.416;2022-11-15T12:22:00;12.40;;;6.80;;
74789;SDS011;63318;52.406;13.416;2022-11-15T12:24:34;16.90;;;7.50;;
74789;SDS011;63318;52.406;13.416;2022-11-15T12:27:19;12.30;;;7.60;;
74789;SDS011;63318;52.406;13.416;2022-11-15T12:29:54;16.10;;;8.80;;
74789;SDS011;63318;52.406;13.416;2022-11-15T12:32:27;15.40;;;8.20;;
74789;SDS011;63318;52.406;13.416;2022-11-15T12:34:58;14.50;;;8.10;;
74789;SDS011;63318;52.406;13.416;2022-11-15T12:37:44;14.90;;;7.60;;
74789;SDS011;63318;52.406;13.416;2022-11-15T12:40:28;12.00;;;7.30;;
74789;SDS011;63318;52.406;13.416;2022-11-15T12:43:00;15.70;;;8.40;;
74789;SDS011;63318;52.406;13.416;2022-11-15T12:45:33;12.90;;;7.20;;
74789;SDS011;63318;52.406;13.416;2022-11-15T12:51:06;12.80;;;8.00;;
74789;SDS011;63318;52.406;13.416;2022-11-15T12:53:35;14.70;;;8.30;;
74789;SDS011;63318;52.406;13.416;2022-11-15T12:56:09;15.10;;;8.10;;
74789;SDS011;63318;52.406;13.416;2022-11-15T12:58:51;14.30;;;9.20;;
74789;SDS011;63318;52.406;13.416;2022-11-15T13:04:25;15.40;;;9.20;;
74789;SDS011;63318;52.406;13.416;2022-11-15T13:06:55;16.30;;;9.20;;
74789;SDS011;63318;52.406;13.416;2022-11-15T13:18:36;16.20;;;9.60;;
74789;SDS011;63318;52.406;13.416;2022-11-15T13:23:53;15.00;;;9.40;;
74789;SDS011;63318;52.406;13.416;2022-11-15T13:26:22;15.20;;;9.40;;
74789;SDS011;63318;52.406;13.416;2022-11-15T13:28:51;15.90;;;9.40;;
74789;SDS011;63318;52.406;13.416;2022-11-15T13:31:26;17.70;;;10.00;;
74789;SDS011;63318;52.406;13.416;2022-11-15T13:34:01;18.40;;;10.80;;
74789;SDS011;63318;52.406;13.416;2022-11-15T13:36:41;19.20;;;9.40;;
74789;SDS011;63318;52.406;13.416;2022-11-15T13:39:14;18.30;;;10.00;;
74789;SDS011;63318;52.406;13.416;2022-11-15T13:41:52;15.90;;;8.90;;
74789;SDS011;63318;52.406;13.416;2022-11-15T13:44:21;17.00;;;8.80;;
74789;SDS011;63318;52.406;13.416;2022-11-15T13:47:01;14.10;;;9.30;;
74789;SDS011;63318;52.406;13.416;2022-11-15T13:49:32;15.10;;;8.80;;
74789;SDS011;63318;52.406;13.416;2022-11-15T13:52:01;15.60;;;9.40;;
74789;SDS011;63318;52.406;13.416;2022-11-15T13:54:33;14.70;;;9.70;;
74789;SDS011;63318;52.406;13.416;2022-11-15T13:57:05;18.40;;;9.80;;
74789;SDS011;63318;52.406;13.416;2022-11-15T13:59:44;19.40;;;9.90;;
74789;SDS011;63318;52.406;13.416;2022-11-15T14:02:16;15.50;;;9.30;;
74789;SDS011;63318;52.406;13.416;2022-11-15T14:04:48;18.00;;;9.60;;
74789;SDS011;63318;52.406;13.416;2022-11-15T14:07:20;17.90;;;9.60;;
74789;SDS011;63318;52.406;13.416;2022-11-15T14:09:51;17.80;;;9.60;;
74789;SDS011;63318;52.406;13.416;2022-11-15T14:12:27;14.60;;;10.20;;
74789;SDS011;63318;52.406;13.416;2022-11-15T14:14:58;16.90;;;10.10;;
74789;SDS011;63318;52.406;13.416;2022-11-15T14:17:44;19.60;;;10.20;;
74789;SDS011;63318;52.406;13.416;2022-11-15T14:20:26;14.90;;;10.00;;
74789;SDS011;63318;52.406;13.416;2022-11-15T14:22:57;16.20;;;10.40;;
74789;SDS011;63318;52.406;13.416;2022-11-15T14:25:26;18.00;;;10.20;;
74789;SDS011;63318;52.406;13.416;2022-11-15T14:28:09;20.10;;;10.30;;
74789;SDS011;63318;52.406;13.416;2022-11-15T14:33:17;15.70;;;9.10;;
74789;SDS011;63318;52.406;13.416;2022-11-15T14:35:48;16.40;;;9.80;;
74789;SDS011;63318;52.406;13.416;2022-11-15T14:38:17;14.90;;;9.00;;
74789;SDS011;63318;52.406;13.416;2022-11-15T14:40:46;14.50;;;9.30;;
74789;SDS011;63318;52.406;13.416;2022-11-15T14:43:15;13.60;;;9.00;;
74789;SDS011;63318;52.406;13.416;2022-11-15T14:45:43;15.20;;;9.50;;
74789;SDS011;63318;52.406;13.416;2022-11-15T14:48:11;13.90;;;8.40;;
74789;SDS011;63318;52.406;13.416;2022-11-15T14:50:40;16.40;;;9.90;;
74789;SDS011;63318;52.406;13.416;2022-11-15T14:53:12;13.40;;;8.50;;
74789;SDS011;63318;52.406;13.416;2022-11-15T14:55:42;13.10;;;8.40;;
74789;SDS011;63318;52.406;13.416;2022-11-15T14:58:10;14.60;;;8.80;;
74789;SDS011;63318;52.406;13.416;2022-11-15T15:00:39;14.70;;;8.50;;
74789;SDS011;63318;52.406;13.416;2022-11-15T15:03:08;15.30;;;8.80;;
74789;SDS011;63318;52.406;13.416;2022-11-15T15:05:37;15.40;;;9.30;;
74789;SDS011;63318;52.406;13.416;2022-11-15T15:08:07;13.30;;;8.70;;
74789;SDS011;63318;52.406;13.416;2022-11-15T15:10:38;15.00;;;8.50;;
74789;SDS011;63318;52.406;13.416;2022-11-15T15:13:10;12.40;;;8.10;;
74789;SDS011;63318;52.406;13.416;2022-11-15T15:15:44;17.50;;;9.50;;
74789;SDS011;63318;52.406;13.416;2022-11-15T15:18:13;15.10;;;9.10;;
74789;SDS011;63318;52.406;13.416;2022-11-15T15:20:43;15.60;;;8.80;;